createdAt,value
2023-11-30T00:01:14.113Z,100016.84
2023-11-30T00:03:41.047Z,100008.69
2023-11-30T00:06:08.488Z,100012.31
2023-11-30T00:08:38.223Z,100009.94
2023-11-30T00:13:37.157Z,100002.16
2023-11-30T00:16:04.052Z,100002.94
2023-11-30T00:18:30.722Z,100004.28
2023-11-30T00:20:57.607Z,100006.34
2023-11-30T00:23:24.222Z,100001.69
2023-11-30T00:25:51.084Z,99999.09
2023-11-30T00:28:17.933Z,99987.22
2023-11-30T00:30:44.777Z,99987.81
2023-11-30T00:33:11.701Z,99991.19
2023-11-30T00:35:38.384Z,99994.38
2023-11-30T00:38:04.980Z,99991.56
2023-11-30T00:40:31.797Z,99992.19
2023-11-30T00:42:58.515Z,99979.56
2023-11-30T00:45:25.518Z,99981.81
2023-11-30T00:47:52.364Z,99972.22
2023-11-30T00:50:19.067Z,99975.63
2023-11-30T00:52:45.894Z,99977.78
2023-11-30T00:55:12.481Z,99978.78
2023-11-30T00:57:39.694Z,99979.13
2023-11-30T01:00:10.033Z,99970.19
2023-11-30T01:02:37.125Z,99970.00
2023-11-30T01:05:03.822Z,99963.78
2023-11-30T01:07:30.422Z,99968.72
2023-11-30T01:09:57.226Z,99965.22
2023-11-30T01:12:23.846Z,99966.22
2023-11-30T01:14:52.953Z,99968.63
2023-11-30T01:17:19.669Z,99967.81
2023-11-30T01:19:46.317Z,99967.59
2023-11-30T01:22:13.632Z,99967.38
2023-11-30T01:24:40.459Z,99971.22
2023-11-30T01:27:09.676Z,99969.75
2023-11-30T01:29:36.307Z,99968.72
2023-11-30T01:32:03.388Z,99966.13
2023-11-30T01:34:30.226Z,99972.34
2023-11-30T01:36:56.874Z,99967.94
2023-11-30T01:39:23.565Z,99966.81
2023-11-30T01:41:50.498Z,99962.06
2023-11-30T01:44:17.119Z,99962.28
2023-11-30T01:46:43.892Z,99958.13
2023-11-30T01:49:10.709Z,99956.75
2023-11-30T01:51:37.879Z,99955.28
2023-11-30T01:54:07.406Z,99960.13
2023-11-30T01:56:35.947Z,99955.16
2023-11-30T01:59:04.282Z,99949.97
2023-11-30T02:01:31.837Z,99946.78
2023-11-30T02:04:03.355Z,99944.41
2023-11-30T02:06:30.016Z,99933.22
2023-11-30T02:08:56.715Z,99936.88
2023-11-30T02:11:23.548Z,99945.09
2023-11-30T02:13:50.900Z,99945.28
2023-11-30T02:16:17.740Z,99933.00
2023-11-30T02:18:44.385Z,99941.13
2023-11-30T02:21:11.218Z,99939.53
2023-11-30T02:23:38.099Z,99936.81
2023-11-30T02:26:04.903Z,99931.63
2023-11-30T02:28:31.768Z,99930.03
2023-11-30T02:30:58.367Z,99919.88
2023-11-30T02:33:25.084Z,99918.28
2023-11-30T02:35:51.993Z,99920.66
2023-11-30T02:38:18.627Z,99920.88
2023-11-30T02:40:46.314Z,99917.72
2023-11-30T02:43:12.944Z,99911.50
2023-11-30T02:45:39.744Z,99915.47
2023-11-30T02:48:06.712Z,99920.44
2023-11-30T02:50:33.633Z,99915.03
2023-11-30T02:53:01.205Z,99913.44
2023-11-30T02:55:27.863Z,99909.28
2023-11-30T02:57:54.510Z,99901.69
2023-11-30T03:00:21.384Z,99909.50
2023-11-30T03:02:48.289Z,99911.06
2023-11-30T03:05:14.958Z,99906.09
2023-11-30T03:07:41.579Z,99903.59
2023-11-30T03:10:08.844Z,99894.59
2023-11-30T03:12:35.818Z,99905.75
2023-11-30T03:15:02.651Z,99908.16
2023-11-30T03:17:29.427Z,99906.09
2023-11-30T03:19:56.399Z,99908.91
2023-11-30T03:22:23.018Z,99909.94
2023-11-30T03:24:49.920Z,99912.66
2023-11-30T03:27:16.540Z,99907.09
2023-11-30T03:29:43.311Z,99903.72
2023-11-30T03:32:10.239Z,99905.31
2023-11-30T03:34:36.927Z,99898.31
2023-11-30T03:37:04.140Z,99899.69
2023-11-30T03:39:30.812Z,99897.09
2023-11-30T03:41:57.479Z,99901.28
2023-11-30T03:44:24.338Z,99895.16
2023-11-30T03:46:50.961Z,99891.78
2023-11-30T03:49:17.882Z,99892.13
2023-11-30T03:51:44.477Z,99892.13
2023-11-30T03:54:11.127Z,99900.91
2023-11-30T03:56:38.054Z,99902.50
2023-11-30T03:59:04.961Z,99897.09
2023-11-30T04:01:31.929Z,99897.09
2023-11-30T04:03:58.651Z,99901.84
2023-11-30T04:06:25.292Z,99895.88
2023-11-30T04:08:52.621Z,99899.91
2023-11-30T04:11:19.599Z,99893.28
2023-11-30T04:13:48.718Z,99893.81
2023-11-30T04:16:16.414Z,99886.59
2023-11-30T04:18:43.509Z,99887.63
2023-11-30T04:21:10.932Z,99894.06
2023-11-30T04:23:37.778Z,99892.00
2023-11-30T04:26:04.524Z,99890.78
2023-11-30T04:28:31.599Z,99877.59
2023-11-30T04:30:58.406Z,99874.22
2023-11-30T04:33:25.472Z,99876.38
2023-11-30T04:35:52.199Z,99870.16
2023-11-30T04:38:19.913Z,99868.56
2023-11-30T04:40:46.782Z,99873.31
2023-11-30T04:43:13.770Z,99872.50
2023-11-30T04:45:40.455Z,99871.50
2023-11-30T04:48:07.208Z,99881.31
2023-11-30T04:50:33.910Z,99870.72
2023-11-30T04:53:00.840Z,99869.28
2023-11-30T04:55:27.927Z,99866.56
2023-11-30T04:57:55.007Z,99862.75
2023-11-30T05:00:21.719Z,99859.56
2023-11-30T05:02:57.170Z,99859.22
2023-11-30T05:05:24.292Z,99868.59
2023-11-30T05:07:50.970Z,99850.41
2023-11-30T05:10:17.927Z,99861.00
2023-11-30T05:12:44.789Z,99853.47
2023-11-30T05:15:11.748Z,99854.47
2023-11-30T05:17:38.484Z,99853.22
2023-11-30T05:20:05.891Z,99849.41
2023-11-30T05:22:32.656Z,99866.13
2023-11-30T05:24:59.316Z,99856.53
2023-11-30T05:27:26.043Z,99857.06
2023-11-30T05:29:52.707Z,99854.25
2023-11-30T05:32:19.478Z,99855.06
2023-11-30T05:34:46.494Z,99851.81
2023-11-30T05:37:13.096Z,99857.31
2023-11-30T05:39:40.120Z,99849.22
2023-11-30T05:42:06.814Z,99851.00
2023-11-30T05:44:33.529Z,99853.59
2023-11-30T05:47:00.354Z,99851.81
2023-11-30T05:49:27.382Z,99854.94
2023-11-30T05:51:54.315Z,99844.34
2023-11-30T05:54:21.034Z,99847.41
2023-11-30T05:56:47.762Z,99843.22
2023-11-30T05:59:15.041Z,99842.22
2023-11-30T06:01:41.931Z,99846.34
2023-11-30T06:04:08.938Z,99847.41
2023-11-30T06:06:35.783Z,99844.00
2023-11-30T06:09:02.931Z,99846.34
2023-11-30T06:11:29.854Z,99844.81
2023-11-30T06:13:57.047Z,99848.41
2023-11-30T06:16:24.359Z,99842.31
2023-11-30T06:18:51.005Z,99845.91
2023-11-30T06:21:18.070Z,99848.75
2023-11-30T06:23:45.229Z,99845.25
2023-11-30T06:26:12.059Z,99850.56
2023-11-30T06:28:38.770Z,99843.09
2023-11-30T06:31:05.686Z,99839.03
2023-11-30T06:33:32.726Z,99852.34
2023-11-30T06:35:59.445Z,99855.88
2023-11-30T06:38:26.076Z,99859.25
2023-11-30T06:40:52.984Z,99852.22
2023-11-30T06:43:19.577Z,99857.22
2023-11-30T06:45:46.466Z,99854.38
2023-11-30T06:48:13.182Z,99861.38
2023-11-30T06:50:40.116Z,99861.38
2023-11-30T06:53:06.704Z,99867.38
2023-11-30T06:55:33.399Z,99869.53
2023-11-30T06:58:00.541Z,99876.63
2023-11-30T07:00:28.282Z,99877.44
2023-11-30T07:02:58.327Z,99871.91
2023-11-30T07:05:25.633Z,99872.44
2023-11-30T07:07:52.332Z,99865.22
2023-11-30T07:10:18.951Z,99871.22
2023-11-30T07:12:46.984Z,99866.81
2023-11-30T07:15:13.992Z,99866.03
2023-11-30T07:17:40.922Z,99864.00
2023-11-30T07:20:08.743Z,99868.84
2023-11-30T07:22:36.279Z,99869.41
2023-11-30T07:25:03.040Z,99869.41
2023-11-30T07:27:30.023Z,99869.41
2023-11-30T07:29:56.852Z,99865.56
2023-11-30T07:32:23.618Z,99864.31
2023-11-30T07:34:50.500Z,99856.28
2023-11-30T07:37:19.447Z,99848.84
2023-11-30T07:39:46.462Z,99866.47
2023-11-30T07:42:26.036Z,99861.72
2023-11-30T07:44:59.710Z,99854.47
2023-11-30T07:47:26.384Z,99856.06
2023-11-30T07:49:52.983Z,99857.88
2023-11-30T07:52:19.586Z,99864.66
2023-11-30T07:54:46.499Z,99857.88
2023-11-30T07:57:14.700Z,99861.03
2023-11-30T07:59:41.285Z,99868.63
2023-11-30T08:02:09.359Z,99866.00
2023-11-30T08:04:39.853Z,99868.13
2023-11-30T08:07:06.628Z,99875.94
2023-11-30T08:09:33.606Z,99870.72
2023-11-30T08:12:00.272Z,99872.09
2023-11-30T08:14:26.892Z,99868.72
2023-11-30T08:16:53.923Z,99872.44
2023-11-30T08:19:20.573Z,99864.66
2023-11-30T08:21:48.806Z,99871.97
2023-11-30T08:24:15.688Z,99858.97
2023-11-30T08:26:43.304Z,99859.53
2023-11-30T08:31:38.635Z,99866.09
2023-11-30T08:34:05.827Z,99865.31
2023-11-30T08:36:32.473Z,99867.69
2023-11-30T08:38:59.166Z,99868.22
2023-11-30T08:41:26.130Z,99867.69
2023-11-30T08:43:52.729Z,99869.22
2023-11-30T08:46:19.790Z,99872.41
2023-11-30T08:48:46.650Z,99871.16
2023-11-30T08:51:13.440Z,99877.72
2023-11-30T08:53:40.335Z,99874.09
2023-11-30T08:56:07.565Z,99870.81
2023-11-30T08:58:34.753Z,99875.78
2023-11-30T09:01:01.341Z,99876.34
2023-11-30T09:03:28.152Z,99874.19
2023-11-30T09:05:54.938Z,99869.56
2023-11-30T09:08:21.669Z,99871.03
2023-11-30T09:10:48.873Z,99868.56
2023-11-30T09:13:15.468Z,99877.03
2023-11-30T09:15:42.388Z,99876.00
2023-11-30T09:18:11.789Z,99879.53
2023-11-30T09:20:38.842Z,99875.94
2023-11-30T09:23:07.658Z,99867.25
2023-11-30T09:25:34.579Z,99877.31
2023-11-30T09:28:01.273Z,99871.09
2023-11-30T09:30:28.025Z,99868.72
2023-11-30T09:32:54.882Z,99867.00
2023-11-30T09:35:21.575Z,99869.56
2023-11-30T09:40:18.834Z,99864.22
2023-11-30T09:42:47.183Z,99855.69
2023-11-30T09:45:14.869Z,99856.91
2023-11-30T09:47:41.578Z,99854.97
2023-11-30T09:50:09.008Z,99845.34
2023-11-30T09:52:38.573Z,99846.84
2023-11-30T09:55:06.978Z,99845.72
2023-11-30T09:57:33.767Z,99841.72
2023-11-30T10:00:00.481Z,99852.78
2023-11-30T10:02:29.622Z,99853.09
2023-11-30T10:04:58.183Z,99842.47
2023-11-30T10:07:25.521Z,99844.91
2023-11-30T10:09:52.146Z,99848.31
2023-11-30T10:12:21.569Z,99852.03
2023-11-30T10:14:48.385Z,99852.13
2023-11-30T10:17:15.121Z,99849.75
2023-11-30T10:19:44.962Z,99844.88
2023-11-30T10:22:11.621Z,99841.31
2023-11-30T10:27:11.845Z,99844.00
2023-11-30T10:29:43.364Z,99840.13
2023-11-30T10:32:14.515Z,99836.97
2023-11-30T10:34:50.737Z,99832.78
2023-11-30T10:37:20.866Z,99825.75
2023-11-30T10:40:02.178Z,99836.50
2023-11-30T10:42:29.344Z,99834.13
2023-11-30T10:44:59.775Z,99839.13
2023-11-30T10:47:29.638Z,99839.97
2023-11-30T10:50:02.394Z,99834.63
2023-11-30T10:52:30.921Z,99834.47
2023-11-30T10:55:05.501Z,99833.91
2023-11-30T10:57:33.178Z,99826.16
2023-11-30T11:00:00.413Z,99824.28
2023-11-30T11:02:38.626Z,99831.69
2023-11-30T11:05:10.007Z,99831.22
2023-11-30T11:07:36.776Z,99836.19
2023-11-30T11:10:07.686Z,99837.63
2023-11-30T11:12:39.276Z,99844.53
2023-11-30T11:15:16.938Z,99829.25
2023-11-30T11:20:28.070Z,99826.84
2023-11-30T11:23:11.051Z,99827.56
2023-11-30T11:25:42.276Z,99832.13
2023-11-30T11:28:09.250Z,99834.69
2023-11-30T11:30:48.556Z,99823.41
2023-11-30T11:33:22.322Z,99833.88
2023-11-30T11:35:49.192Z,99830.25
2023-11-30T11:38:15.857Z,99834.34
2023-11-30T11:40:43.257Z,99838.09
2023-11-30T11:43:10.298Z,99829.53
2023-11-30T11:45:38.522Z,99823.84
2023-11-30T11:48:05.547Z,99828.25
2023-11-30T11:50:32.242Z,99819.81
2023-11-30T11:53:04.954Z,99820.03
2023-11-30T11:55:31.905Z,99816.41
2023-11-30T11:57:58.958Z,99815.63
2023-11-30T12:00:27.256Z,99820.28
2023-11-30T12:03:08.619Z,99817.28
2023-11-30T12:05:46.252Z,99814.03
2023-11-30T12:08:12.885Z,99811.16
2023-11-30T12:10:50.662Z,99812.97
2023-11-30T12:13:17.700Z,99800.72
2023-11-30T12:15:46.814Z,99799.94
2023-11-30T12:18:13.937Z,99797.09
2023-11-30T12:20:40.851Z,99795.56
2023-11-30T12:23:07.897Z,99796.13
2023-11-30T12:25:34.546Z,99787.28
2023-11-30T12:28:01.588Z,99791.75
2023-11-30T12:30:28.196Z,99786.31
2023-11-30T12:32:55.208Z,99788.66
2023-11-30T12:35:21.928Z,99787.88
2023-11-30T12:37:49.908Z,99786.06
2023-11-30T12:40:16.711Z,99784.00
2023-11-30T12:42:45.020Z,99787.94
2023-11-30T12:45:11.908Z,99785.31
2023-11-30T12:47:42.774Z,99784.13
2023-11-30T12:50:12.962Z,99789.59
2023-11-30T12:52:39.936Z,99792.97
2023-11-30T12:55:07.856Z,99791.16
2023-11-30T12:57:40.221Z,99784.91
2023-11-30T13:00:16.316Z,99785.69
2023-11-30T13:02:47.209Z,99786.81
2023-11-30T13:05:15.286Z,99775.81
2023-11-30T13:07:42.366Z,99774.00
2023-11-30T13:10:11.861Z,99776.28
2023-11-30T13:12:39.509Z,99767.41
2023-11-30T13:15:08.036Z,99779.88
2023-11-30T13:17:35.024Z,99770.19
2023-11-30T13:22:30.840Z,99775.22
2023-11-30T13:24:59.501Z,99769.13
2023-11-30T13:27:26.945Z,99773.94
2023-11-30T13:29:53.664Z,99768.75
2023-11-30T13:32:20.365Z,99760.72
2023-11-30T13:34:46.959Z,99763.31
2023-11-30T13:37:13.703Z,99770.34
2023-11-30T13:39:40.569Z,99761.50
2023-11-30T13:42:07.288Z,99770.09
2023-11-30T13:44:33.940Z,99769.69
2023-11-30T13:47:00.847Z,99769.44
2023-11-30T13:49:28.214Z,99776.56
2023-11-30T13:51:56.342Z,99774.97
2023-11-30T13:54:24.975Z,99784.84
2023-11-30T13:56:51.861Z,99780.34
2023-11-30T13:59:18.462Z,99778.38
2023-11-30T14:01:45.223Z,99779.03
2023-11-30T14:04:12.949Z,99781.41
2023-11-30T14:06:40.502Z,99780.06
2023-11-30T14:11:41.995Z,99781.78
2023-11-30T14:14:08.856Z,99779.47
2023-11-30T14:16:35.643Z,99773.13
2023-11-30T14:19:02.848Z,99778.59
2023-11-30T14:21:29.517Z,99776.44
2023-11-30T14:23:56.103Z,99788.44
2023-11-30T14:26:22.807Z,99793.16
2023-11-30T14:28:49.880Z,99793.56
2023-11-30T14:31:19.852Z,99799.03
2023-11-30T14:33:46.918Z,99796.78
2023-11-30T14:36:14.093Z,99792.38
2023-11-30T14:38:42.182Z,99796.88
2023-11-30T14:41:09.248Z,99796.41
2023-11-30T14:43:36.287Z,99802.66
2023-11-30T14:46:03.454Z,99804.63
2023-11-30T14:48:30.217Z,99800.78
2023-11-30T14:53:25.747Z,99795.00
2023-11-30T14:55:52.673Z,99804.31
2023-11-30T14:58:21.121Z,99804.53
2023-11-30T15:00:49.047Z,99810.00
2023-11-30T15:03:16.963Z,99818.03
2023-11-30T15:05:43.718Z,99813.78
2023-11-30T15:08:10.964Z,99820.66
2023-11-30T15:10:40.165Z,99826.00
2023-11-30T15:13:07.145Z,99830.09
2023-11-30T15:15:33.796Z,99835.75
2023-11-30T15:18:00.498Z,99833.78
2023-11-30T15:22:55.731Z,99841.69
2023-11-30T15:25:22.418Z,99835.00
2023-11-30T15:27:50.363Z,99841.22
2023-11-30T15:30:17.578Z,99834.22
2023-11-30T15:32:44.527Z,99842.63
2023-11-30T15:35:11.614Z,99836.28
2023-11-30T15:37:38.400Z,99837.88
2023-11-30T15:40:10.276Z,99839.50
2023-11-30T15:42:38.315Z,99835.50
2023-11-30T15:45:11.711Z,99839.00
2023-11-30T15:47:40.391Z,99838.44
2023-11-30T15:50:07.865Z,99833.56
2023-11-30T15:52:34.650Z,99834.66
2023-11-30T15:55:01.334Z,99837.41
2023-11-30T15:57:28.207Z,99831.88
2023-11-30T15:59:54.940Z,99836.28
2023-11-30T16:02:22.006Z,99827.94
2023-11-30T16:04:48.716Z,99823.03
2023-11-30T16:07:15.442Z,99824.31
2023-11-30T16:09:42.099Z,99830.75
2023-11-30T16:12:09.253Z,99826.72
2023-11-30T16:14:36.222Z,99831.13
2023-11-30T16:17:03.308Z,99839.16
2023-11-30T16:19:30.216Z,99833.88
2023-11-30T16:21:58.574Z,99830.56
2023-11-30T16:24:25.452Z,99832.16
2023-11-30T16:26:55.943Z,99832.50
2023-11-30T16:29:23.526Z,99838.72
2023-11-30T16:31:52.458Z,99843.38
2023-11-30T16:34:20.890Z,99841.47
2023-11-30T16:36:48.688Z,99844.06
2023-11-30T16:39:15.921Z,99849.28
2023-11-30T16:41:43.790Z,99849.03
2023-11-30T16:44:10.700Z,99849.94
2023-11-30T16:46:37.620Z,99848.91
2023-11-30T16:49:04.480Z,99839.78
2023-11-30T16:51:31.172Z,99853.00
2023-11-30T16:53:57.977Z,99859.31
2023-11-30T16:56:26.124Z,99854.13
2023-11-30T16:58:53.796Z,99860.91
2023-11-30T17:01:21.409Z,99871.88
2023-11-30T17:03:48.901Z,99865.00
2023-11-30T17:06:15.976Z,99864.13
2023-11-30T17:08:43.295Z,99865.22
2023-11-30T17:11:10.003Z,99868.41
2023-11-30T17:13:36.624Z,99874.72
2023-11-30T17:16:06.341Z,99872.47
2023-11-30T17:18:35.196Z,99870.53
2023-11-30T17:21:02.149Z,99878.13
2023-11-30T17:23:28.751Z,99887.16
2023-11-30T17:25:55.349Z,99886.72
2023-11-30T17:28:21.975Z,99888.16
2023-11-30T17:30:48.679Z,99878.81
2023-11-30T17:33:15.650Z,99880.50
2023-11-30T17:35:42.477Z,99890.66
2023-11-30T17:38:09.264Z,99889.09
2023-11-30T17:40:35.933Z,99888.63
2023-11-30T17:43:02.557Z,99886.94
2023-11-30T17:45:29.958Z,99893.59
2023-11-30T17:47:57.110Z,99889.97
2023-11-30T17:50:24.566Z,99897.19
2023-11-30T17:52:52.708Z,99901.75
2023-11-30T17:55:20.446Z,99905.44
2023-11-30T17:57:47.186Z,99905.00
2023-11-30T18:00:14.397Z,99906.34
2023-11-30T18:02:41.135Z,99914.16
2023-11-30T18:05:08.178Z,99911.31
2023-11-30T18:07:34.818Z,99905.44
2023-11-30T18:10:01.983Z,99916.63
2023-11-30T18:12:28.962Z,99920.81
2023-11-30T18:14:55.586Z,99928.34
2023-11-30T18:17:22.206Z,99926.28
2023-11-30T18:19:48.928Z,99919.66
2023-11-30T18:22:15.520Z,99922.47
2023-11-30T18:24:42.631Z,99920.72
2023-11-30T18:27:09.386Z,99916.78
2023-11-30T18:29:36.371Z,99918.72
2023-11-30T18:32:04.206Z,99918.84
2023-11-30T18:34:30.981Z,99923.59
2023-11-30T18:36:57.894Z,99919.50
2023-11-30T18:39:24.998Z,99914.88
2023-11-30T18:41:52.641Z,99925.84
2023-11-30T18:44:19.323Z,99936.22
2023-11-30T18:46:46.022Z,99936.31
2023-11-30T18:49:12.775Z,99936.56
2023-11-30T18:51:39.787Z,99932.84
2023-11-30T18:54:06.585Z,99930.94
2023-11-30T18:56:33.325Z,99928.91
2023-11-30T18:59:00.666Z,99930.34
2023-11-30T19:01:28.509Z,99942.06
2023-11-30T19:06:25.992Z,99939.63
2023-11-30T19:08:53.821Z,99945.94
2023-11-30T19:11:23.099Z,99948.94
2023-11-30T19:16:22.113Z,99943.69
2023-11-30T19:18:50.437Z,99950.28
2023-11-30T19:21:18.522Z,99945.59
2023-11-30T19:23:46.740Z,99961.88
2023-11-30T19:26:14.498Z,99950.38
2023-11-30T19:28:41.453Z,99949.69
2023-11-30T19:31:08.554Z,99954.06
2023-11-30T19:33:35.633Z,99956.66
2023-11-30T19:36:02.303Z,99960.47
2023-11-30T19:38:29.690Z,99970.56
2023-11-30T19:40:57.498Z,99969.28
2023-11-30T19:43:27.741Z,99964.28
2023-11-30T19:45:55.469Z,99972.88
2023-11-30T19:48:22.845Z,99965.09
2023-11-30T19:50:49.530Z,99977.72
2023-11-30T19:53:16.877Z,99977.53
2023-11-30T19:55:48.022Z,99976.66
2023-11-30T19:58:18.241Z,99978.16
2023-11-30T20:00:45.571Z,99969.28
2023-11-30T20:03:12.547Z,99977.94
2023-11-30T20:08:07.921Z,99980.44
2023-11-30T20:10:34.680Z,99988.09
2023-11-30T20:13:02.355Z,99980.22
2023-11-30T20:15:31.115Z,99988.00
2023-11-30T20:17:58.183Z,99986.75
2023-11-30T20:20:25.353Z,99971.13
2023-11-30T20:22:51.952Z,99977.13
2023-11-30T20:27:47.959Z,99971.50
2023-11-30T20:30:14.839Z,99977.25
2023-11-30T20:35:11.862Z,99980.16
2023-11-30T20:37:38.502Z,99983.75
2023-11-30T20:40:05.694Z,99985.84
2023-11-30T20:42:32.620Z,99986.31
2023-11-30T20:44:59.854Z,99986.63
2023-11-30T20:47:26.491Z,99978.97
2023-11-30T20:49:53.443Z,99985.44
2023-11-30T20:52:20.455Z,99988.53
2023-11-30T20:54:47.205Z,99989.91
2023-11-30T20:57:16.737Z,99997.22
2023-11-30T20:59:45.626Z,99992.41
2023-11-30T21:02:14.585Z,99992.63
2023-11-30T21:04:41.337Z,99998.09
2023-11-30T21:07:08.533Z,99994.50
2023-11-30T21:09:36.808Z,99989.66
2023-11-30T21:12:03.892Z,99994.09
2023-11-30T21:14:30.820Z,100003.44
2023-11-30T21:16:57.474Z,100003.31
2023-11-30T21:19:24.515Z,99998.31
2023-11-30T21:21:51.157Z,100000.13
2023-11-30T21:24:18.003Z,100002.09
2023-11-30T21:26:44.906Z,100003.09
2023-11-30T21:29:11.905Z,100006.25
2023-11-30T21:31:41.574Z,99998.19
2023-11-30T21:34:08.264Z,99993.84
2023-11-30T21:36:35.540Z,99998.41
2023-11-30T21:39:02.163Z,99991.94
2023-11-30T21:41:29.047Z,99999.69
2023-11-30T21:43:55.888Z,100008.25
2023-11-30T21:46:22.801Z,100003.59
2023-11-30T21:48:49.572Z,100003.50
2023-11-30T21:51:16.250Z,100000.69
2023-11-30T21:53:42.832Z,100006.25
2023-11-30T21:58:40.331Z,100003.72
2023-11-30T22:01:11.531Z,100012.31
2023-11-30T22:03:39.247Z,100012.66
2023-11-30T22:06:06.551Z,100013.47
2023-11-30T22:08:33.909Z,100010.72
2023-11-30T22:11:00.906Z,100009.72
2023-11-30T22:13:28.382Z,100004.47
2023-11-30T22:16:00.090Z,100002.88
2023-11-30T22:18:37.784Z,100003.22
2023-11-30T22:21:08.098Z,100006.25
2023-11-30T22:23:35.872Z,100001.00
2023-11-30T22:26:04.549Z,100006.97
2023-11-30T22:28:32.547Z,100003.06
2023-11-30T22:31:00.383Z,100009.47
2023-11-30T22:33:28.382Z,100009.69
2023-11-30T22:35:57.923Z,100001.72
2023-11-30T22:38:26.933Z,100021.03
2023-11-30T22:40:54.970Z,100015.97
2023-11-30T22:43:24.234Z,100012.75
2023-11-30T22:45:51.198Z,100019.94
2023-11-30T22:48:18.616Z,100009.50
2023-11-30T22:50:45.558Z,100021.88
2023-11-30T22:53:13.948Z,100021.16
2023-11-30T22:55:41.059Z,100022.13
2023-11-30T22:58:08.128Z,100015.84
2023-11-30T23:00:35.966Z,100037.59
2023-11-30T23:03:04.128Z,100031.63
2023-11-30T23:05:31.841Z,100033.72
2023-11-30T23:07:59.193Z,100028.44
2023-11-30T23:10:26.172Z,100031.41
2023-11-30T23:12:54.254Z,100039.72
2023-11-30T23:15:21.227Z,100032.72
2023-11-30T23:17:48.114Z,100043.34
2023-11-30T23:20:15.150Z,100031.84
2023-11-30T23:22:42.022Z,100035.34
2023-11-30T23:25:09.947Z,100040.81
2023-11-30T23:27:37.428Z,100040.63
2023-11-30T23:30:05.195Z,100040.41
2023-11-30T23:32:32.131Z,100042.63
2023-11-30T23:34:59.041Z,100045.66
2023-11-30T23:37:26.398Z,100041.63
2023-11-30T23:39:53.277Z,100046.44
2023-11-30T23:42:20.315Z,100046.44
2023-11-30T23:44:47.890Z,100038.09
2023-11-30T23:47:15.372Z,100041.84
2023-11-30T23:49:42.071Z,100049.78
2023-11-30T23:52:08.750Z,100039.44
2023-11-30T23:54:35.822Z,100041.41
2023-11-30T23:57:02.511Z,100046.09
2023-11-30T23:59:29.397Z,100042.72
